Wijnegem, Belgium
Current Conditions -  °F | °C
As of 3:20 PM on Monday 20 Oct 2014 (Local Time) from EBAW Reporting Station
Few Clouds Few Clouds  
Wind Chill: 64°   Ceiling: Unl
Heat Index: 64°   Visibility: 6mi
Dew Point: 50°   Wind: 13mph
Humidity: 59%   Direction: 250°WSW
Pressure: 30"   Gusts: NA
Location:  51.23°N, 4.52°E
Report Text: EBAW 201320Z 25011KT 210V290 9999 FEW030 18/10 Q1016 NOSIG
Loading
Personal Weather Stations






























Interactive Weather Map
Tropical Storm Tracking
New forecast layout! Learn more

10-Day Weather Forecast

Advertisements
Track Severe Weather on mobile